ETHL 200020Z AUTO 16005KT 9999 // ////// 17/11 Q1024 /// ETHL 192320Z AUTO 15002KT 9000 // ////// 18/12 Q1024 /// ETHL 192220Z AUTO 11002KT 9999 // ////// 18/13 Q1024 /// ETHL 192120Z 08003KT 9999 FEW060 SCT120 17/12 Q1024 BLU+ ETHL 192020Z 24005KT 9999 FEW060CB SCT260 20/11 Q1023 BLU+ ETHL 191920Z 22006KT 9999 FEW060CB SCT080 BKN250 21/12 Q1023 BLU+ ETHL 191820Z 23005KT 9999 FEW060TCU SCT120 BKN220 22/12 Q1022 BLU+ ETHL 191720Z 22005KT 9999 SCT060CB BKN120 BKN220 22/13 Q1022 RETS BLU ETHL 191642Z 34003KT 9999 -TSRA SCT060CB SCT110 BKN160 23/11 Q1022 BLU ETHL 191620Z 33002KT 9999 VCSH FEW060CB SCT080 BKN150 24/11 Q1022 BLU ETHL 191520Z 25009KT 9999 VCSH FEW035 FEW060CB BKN340 28/12 Q1021 RETS BLU+ ETHL 191500Z 23008KT 9999 VCTS VCSH FEW035 FEW060CB BKN320 28/12 Q1021 BLU+FCST CNL ETHL 191450Z 23009KT 9999 VCTS VCSH FEW035 FEW060CB BKN320 28/12 Q1021 BLU+BLU TEMPO GRN ETHL 191420Z 23006KT 9999 VCSH FEW060CB BKN310 28/12 Q1021 BLU+BLU TEMPO GRN ETHL 191320Z 22004KT 9999 FEW065CB BKN360 28/12 Q1021 BLU+BLU TEMPO GRN ETHL 191220Z 22007KT 9999 FEW060 BKN350 27/13 Q1022 BLU+BLU+ ETHL 191120Z 24007KT 9999 FEW045 BKN330 27/15 Q1022 BLU+BLU+ ETHL 191020Z 24007KT 9999 FEW040 BKN320 25/15 Q1022 BLU+BLU+ ETHL 190920Z 26003KT 9999 FEW050 BKN300 22/14 Q1023 BLU+BLU+ ETHL 190820Z 26004KT 9999 FEW040 BKN300 19/12 Q1023 BLU+BLU+ ETHL 190720Z VRB03KT 9999 BKN300 17/10 Q1023 BLU+BLU+ ETHL 190620Z VRB01KT 9999 BKN300 15/09 Q1023 BLU+BLU+ ETHL 190520Z 02002KT 9999 BKN300 14/10 Q1023 BLU+BLU+ ETHL 190420Z 35001KT 9999 BKN300 11/08 Q1022 BLU+BLU+ ETHL 190320Z AUTO 36001KT 9999 // ////// 10/08 Q1022 /// ETHL 190220Z AUTO 05003KT 9999 // ////// 12/09 Q1022 /// ETHL 190120Z AUTO 04003KT 9999 // ////// 12/08 Q1022 /// ETHL 190020Z AUTO 01003KT 9999 // ////// 13/08 Q1022 /// ETHL 182320Z AUTO 03003KT 9999 // ////// 14/09 Q1022 /// ETHL 182220Z AUTO 07007KT 9999 // ////// 16/08 Q1022 /// ETHL 182120Z 08007KT 9999 SCT380 18/09 Q1023 BLU+ ETHL 182020Z 09008KT 9999 SCT380 19/10 Q1023 BLU+ ETHL 181920Z 09010KT 9999 BKN380 20/10 Q1022 BLU+ ETHL 181820Z 09009KT 9999 BKN380 22/09 Q1022 BLU+ ETHL 181720Z 08013KT 9999 FEW050 SCT340 23/09 Q1022 BLU+ ETHL 181620Z 08010KT 9999 FEW050 24/10 Q1022 BLU+ ETHL 181520Z 08009KT 9999 FEW050 25/09 Q1022 BLU+ ETHL 181500Z 08009KT 9999 FEW050 SCT340 25/09 Q1022 BLU+FCST CNL ETHL 181420Z 07008KT 9999 FEW050 SCT340 25/09 Q1022 BLU+BLU+ ETHL 181320Z 08010KT 9999 FEW050 BKN340 25/09 Q1023 BLU+BLU+

METAR Messwerte "LAUPHEIM (GER-AR" ETHL

Zurück zur Übersicht

Ortsname
Ländercode / m ü. NN
Zeit Temperatur Taupunkt Rel.
Luftfeuchte
Luftdruck:
Altimeter
NN
Station
Wind in Beaufort
(Knoten)
Sichtweite
(Meter)
Wolken
(Meter über Grund)
Wettererscheinung
LAUPHEIM (GER-AR
DE 536
Fr 20.05. 02:20171168 %1024
1024
961
SSO 2 (5)>= 10000  
LAUPHEIM (GER-AR
DE 536
Fr 20.05. 01:20181268 %1024
1023
961
SSO 1 (2)9000  
LAUPHEIM (GER-AR
DE 536
Fr 20.05. 00:20181373 %1024
1023
961
OSO 1 (2)>= 10000  
LAUPHEIM (GER-AR
DE 536
Do 19.05. 23:20171272 %1024
1024
961
O 2 (3)>= 10000Wolkig (3700)
Leicht bewölkt (1800)
 
LAUPHEIM (GER-AR
DE 536
Do 19.05. 22:20201156 %1023
1022
960
WSW 2 (5)>= 10000Wolkig (7900)
Leicht bewölkt Cb (1800)
 
LAUPHEIM (GER-AR
DE 536
Do 19.05. 21:20211256 %1023
1022
960
SW 2 (6)>= 10000Stark bewölkt (7600)
Wolkig (2400)
Leicht bewölkt Cb (1800)
 
LAUPHEIM (GER-AR
DE 536
Do 19.05. 20:20221253 %1022
1021
959
SW 2 (5)>= 10000Stark bewölkt (6700)
Wolkig (3700)
Leicht bewölkt (1800)
 
LAUPHEIM (GER-AR
DE 536
Do 19.05. 19:20221357 %1022
1021
959
SW 2 (5)>= 10000Stark bewölkt (6700)
Stark bewölkt (3700)
Wolkig Cb (1800)
 
LAUPHEIM (GER-AR
DE 536
Do 19.05. 18:42231147 %1022
1020
959
NNW 2 (3)>= 10000Stark bewölkt (4900)
Wolkig (3400)
Wolkig Cb (1800)
Gewitter mit Regen (schwach)
LAUPHEIM (GER-AR
DE 536
Do 19.05. 18:20241144 %1022
1020
959
NNW 1 (2)>= 10000Stark bewölkt (4600)
Wolkig (2400)
Leicht bewölkt Cb (1800)
 
LAUPHEIM (GER-AR
DE 536
Do 19.05. 17:20281237 %1021
1018
958
WSW 3 (9)>= 10000Stark bewölkt (10000)
Leicht bewölkt Cb (1800)
Leicht bewölkt (1100)
 
LAUPHEIM (GER-AR
DE 536
Do 19.05. 17:00281237 %1021
1018
958
SW 3 (8)>= 10000Stark bewölkt (9800)
Leicht bewölkt Cb (1800)
Leicht bewölkt (1100)
 
LAUPHEIM (GER-AR
DE 536
Do 19.05. 16:50281237 %1021
1018
958
SW 3 (9)>= 10000Stark bewölkt (9800)
Leicht bewölkt Cb (1800)
Leicht bewölkt (1100)
 
LAUPHEIM (GER-AR
DE 536
Do 19.05. 16:20281237 %1021
1018
958
SW 2 (6)>= 10000Stark bewölkt (9400)
Leicht bewölkt Cb (1800)
 
LAUPHEIM (GER-AR
DE 536
Do 19.05. 15:20281237 %1021
1018
958
SW 2 (4)>= 10000Stark bewölkt (11000)
Leicht bewölkt Cb (2000)
 
LAUPHEIM (GER-AR
DE 536
Do 19.05. 14:20271342 %1022
1019
959
SW 3 (7)>= 10000Stark bewölkt (11000)
Leicht bewölkt (1800)
 
LAUPHEIM (GER-AR
DE 536
Do 19.05. 13:20271548 %1022
1019
959
WSW 3 (7)>= 10000Stark bewölkt (10000)
Leicht bewölkt (1400)
 
LAUPHEIM (GER-AR
DE 536
Do 19.05. 12:20251554 %1022
1020
959
WSW 3 (7)>= 10000Stark bewölkt (9800)
Leicht bewölkt (1200)
 
LAUPHEIM (GER-AR
DE 536
Do 19.05. 11:20221460 %1023
1022
960
W 2 (3)>= 10000Stark bewölkt (9100)
Leicht bewölkt (1500)
 
LAUPHEIM (GER-AR
DE 536
Do 19.05. 10:20191264 %1023
1022
960
W 2 (4)>= 10000Stark bewölkt (9100)
Leicht bewölkt (1200)
 
LAUPHEIM (GER-AR
DE 536
Do 19.05. 09:20171063 %1023
1023
960
Uml 2 (3)>= 10000Stark bewölkt (9100) 
LAUPHEIM (GER-AR
DE 536
Do 19.05. 08:2015967 %1023
1023
960
Uml 1 (1)>= 10000Stark bewölkt (9100) 
LAUPHEIM (GER-AR
DE 536
Do 19.05. 07:20141077 %1023
1023
960
NNO 1 (2)>= 10000Stark bewölkt (9100) 
LAUPHEIM (GER-AR
DE 536
Do 19.05. 06:2011882 %1022
1023
959
N 1 (1)>= 10000Stark bewölkt (9100) 
LAUPHEIM (GER-AR
DE 536
Do 19.05. 05:2010887 %1022
1023
959
N 1 (1)>= 10000  
LAUPHEIM (GER-AR
DE 536
Do 19.05. 04:2012982 %1022
1023
959
NO 2 (3)>= 10000  
LAUPHEIM (GER-AR
DE 536
Do 19.05. 03:2012876 %1022
1023
959
NO 2 (3)>= 10000  
LAUPHEIM (GER-AR
DE 536
Do 19.05. 02:2013872 %1022
1023
959
N 2 (3)>= 10000  
LAUPHEIM (GER-AR
DE 536
Do 19.05. 01:2014972 %1022
1022
959
NNO 2 (3)>= 10000  
LAUPHEIM (GER-AR
DE 536
Do 19.05. 00:2016859 %1022
1022
959
ONO 3 (7)>= 10000  
LAUPHEIM (GER-AR
DE 536
Mi 18.05. 23:2018956 %1023
1022
960
O 3 (7)>= 10000Wolkig (12000) 
LAUPHEIM (GER-AR
DE 536
Mi 18.05. 22:20191056 %1023
1022
960
O 3 (8)>= 10000Wolkig (12000) 
LAUPHEIM (GER-AR
DE 536
Mi 18.05. 21:20201053 %1022
1021
959
O 3 (10)>= 10000Stark bewölkt (12000) 
LAUPHEIM (GER-AR
DE 536
Mi 18.05. 20:2022943 %1022
1021
959
O 3 (9)>= 10000Stark bewölkt (12000) 
LAUPHEIM (GER-AR
DE 536
Mi 18.05. 19:2023941 %1022
1020
959
O 4 (13)>= 10000Wolkig (10000)
Leicht bewölkt (1500)
 
LAUPHEIM (GER-AR
DE 536
Mi 18.05. 18:20241041 %1022
1020
959
O 3 (10)>= 10000Leicht bewölkt (1500) 
LAUPHEIM (GER-AR
DE 536
Mi 18.05. 17:2025936 %1022
1020
959
O 3 (9)>= 10000Leicht bewölkt (1500) 
LAUPHEIM (GER-AR
DE 536
Mi 18.05. 17:0025936 %1022
1020
959
O 3 (9)>= 10000Wolkig (10000)
Leicht bewölkt (1500)
 
LAUPHEIM (GER-AR
DE 536
Mi 18.05. 16:2025936 %1022
1020
959
ONO 3 (8)>= 10000Wolkig (10000)
Leicht bewölkt (1500)
 
LAUPHEIM (GER-AR
DE 536
Mi 18.05. 15:2025936 %1023
1021
960
O 3 (10)>= 10000Stark bewölkt (10000)
Leicht bewölkt (1500)
 

Altimeter: Einstellung am Altimeter (Höhenmesser), die Höhe 0 muss auf diesen Luftdruckwert zeigen, damit das Gerät die Stationshöhe richtig anzeigt.

NN: Luftdruck reduziert auf "Normal Null", auf Meereshöhe, dieser von der Temperatur abhängige Wert wird bisweilen unkorrekt einfach als "Luftdruck" bezeichnet. Eigentlich nur eine fiktive Größe, die es erlaubt, Stationen auf unterschiedlichen Höhen miteinander zu vergleichen.

Station: Realer Luftdruck an der Station.